Time;durP1;ratioP1;P1;durP2;ratioP2;P2;SDS_P1;SDS_P2;PMS_P1;PMS_P2;Temp;Humidity;BMP_temperature;BMP_pressure;BME280_temperature;BME280_humidity;BME280_pressure;Samples;Min_cycle;Max_cycle;Signal;HPM_P1;HPM_P2
2021/12/26 00:01:13;;;;;;;6.33;4.63;;;;;;;-143.84;53.69;45129.03;5016762;28;20462;-78
2021/12/26 00:03:41;;;;;;;6.50;4.77;;;;;;;-143.84;53.83;45110.00;5009878;28;20993;-81
2021/12/26 00:06:11;;;;;;;6.17;5.30;;;;;;;-143.84;53.92;45104.28;5009565;28;20534;-78
2021/12/26 00:08:40;;;;;;;7.57;5.03;;;;;;;-143.84;54.13;45111.91;5018753;28;20447;-78
2021/12/26 00:11:08;;;;;;;10.10;5.13;;;;;;;-143.84;53.84;45132.84;5028376;28;20573;-77
2021/12/26 00:13:36;;;;;;;5.50;5.00;;;;;;;-143.84;54.03;45127.13;5028726;28;20508;-78
2021/12/26 00:16:06;;;;;;;8.67;6.00;;;;;;;-143.84;54.11;45119.53;5029120;28;20450;-78
2021/12/26 00:18:34;;;;;;;6.20;5.53;;;;;;;-143.84;54.08;45108.09;5012398;28;20972;-79
2021/12/26 00:21:02;;;;;;;9.43;6.40;;;;;;;-143.84;54.29;45102.38;5029468;28;20880;-78
2021/12/26 00:23:29;;;;;;;6.00;5.10;;;;;;;-143.84;54.31;45117.63;5028648;28;20453;-78
2021/12/26 00:25:57;;;;;;;5.73;4.93;;;;;;;-143.84;54.29;45111.91;5029524;28;21010;-78
2021/12/26 00:28:24;;;;;;;5.20;4.70;;;;;;;-143.84;54.49;45115.72;5029822;28;20427;-77
2021/12/26 00:30:51;;;;;;;7.87;4.63;;;;;;;-143.84;54.81;45102.38;5029301;28;20489;-78
2021/12/26 00:33:20;;;;;;;5.63;5.13;;;;;;;-143.84;54.70;45119.53;5029186;28;20492;-77
2021/12/26 00:35:48;;;;;;;5.20;4.67;;;;;;;-143.84;54.63;45110.00;5012715;28;20446;-77
2021/12/26 00:38:15;;;;;;;6.47;5.00;;;;;;;-143.84;54.66;45110.00;5028642;28;20494;-77
2021/12/26 00:40:43;;;;;;;5.13;4.63;;;;;;;-143.84;54.86;45108.09;5028112;28;20454;-77
2021/12/26 00:43:10;;;;;;;5.63;5.03;;;;;;;-143.84;54.80;45117.63;5031793;28;20445;-76
2021/12/26 00:45:39;;;;;;;5.10;4.60;;;;;;;-143.84;54.97;45110.00;5031899;28;20441;-75
2021/12/26 00:48:08;;;;;;;5.40;4.27;;;;;;;-143.84;55.06;45129.03;5032220;28;20820;-77
2021/12/26 00:50:40;;;;;;;5.93;4.63;;;;;;;-143.84;55.06;45087.16;5033136;28;20492;-78
2021/12/26 00:53:07;;;;;;;13.27;5.37;;;;;;;-143.84;55.13;45113.81;5031399;28;20487;-74
2021/12/26 00:55:35;;;;;;;8.17;5.87;;;;;;;-143.84;55.09;45104.28;5031179;28;20615;-75
2021/12/26 00:58:02;;;;;;;5.50;4.67;;;;;;;-143.84;55.37;45127.13;5030379;28;20461;-76
2021/12/26 01:00:32;;;;;;;6.20;5.30;;;;;;;-143.84;55.17;45117.63;5030061;28;20438;-74
2021/12/26 01:03:01;;;;;;;6.30;5.70;;;;;;;-143.84;55.29;45121.44;5030274;28;21379;-75
2021/12/26 01:05:30;;;;;;;7.80;5.50;;;;;;;-143.84;55.54;45127.13;5030163;28;20890;-76
2021/12/26 01:08:02;;;;;;;5.37;4.87;;;;;;;-143.84;55.59;45125.22;5031338;28;20453;-79
2021/12/26 01:10:34;;;;;;;7.20;6.20;;;;;;;-143.84;55.52;45121.44;5030781;28;20485;-76
2021/12/26 01:13:14;;;;;;;5.80;5.30;;;;;;;-143.84;55.54;45130.94;5030944;28;20936;-76
2021/12/26 01:15:41;;;;;;;6.77;5.07;;;;;;;-143.84;55.66;45100.47;5031104;28;20444;-76
2021/12/26 01:18:08;;;;;;;5.17;4.73;;;;;;;-143.84;56.05;45102.38;5015350;28;20441;-75
2021/12/26 01:20:44;;;;;;;7.30;5.83;;;;;;;-143.84;56.08;45130.94;5030520;28;20488;-75
2021/12/26 01:23:15;;;;;;;5.33;4.83;;;;;;;-143.84;56.31;45140.47;5031582;28;20457;-78
2021/12/26 01:25:43;;;;;;;5.87;5.37;;;;;;;-143.84;56.34;45121.44;5030944;28;20458;-76
2021/12/26 01:28:10;;;;;;;4.50;4.20;;;;;;;-143.84;56.17;45125.22;5031585;28;20449;-75
2021/12/26 01:30:41;;;;;;;6.57;5.57;;;;;;;-143.84;55.92;45119.53;5031565;28;20490;-77
2021/12/26 01:33:10;;;;;;;4.17;3.80;;;;;;;-143.84;56.10;45125.22;5031900;28;20465;-78
2021/12/26 01:35:38;;;;;;;6.60;5.00;;;;;;;-143.84;56.29;45121.44;5031918;28;20429;-76
2021/12/26 01:38:06;;;;;;;9.03;4.97;;;;;;;-143.84;56.43;45110.00;5031982;28;20457;-79
2021/12/26 01:40:38;;;;;;;4.60;4.20;;;;;;;-143.84;56.36;45115.72;5031697;28;20450;-78
2021/12/26 01:43:05;;;;;;;4.63;4.13;;;;;;;-143.84;56.32;45117.63;5032670;28;20447;-77
2021/12/26 01:45:33;;;;;;;9.47;4.20;;;;;;;-143.84;56.10;45108.09;5027709;28;20457;-77
2021/12/26 01:48:01;;;;;;;6.93;4.63;;;;;;;-143.84;55.92;45102.38;5019852;28;20438;-77
2021/12/26 01:50:30;;;;;;;5.33;4.80;;;;;;;-143.84;56.13;45129.03;5034211;28;20485;-77
2021/12/26 01:52:57;;;;;;;5.00;4.00;;;;;;;-143.84;55.97;45130.94;5033800;28;20457;-77
2021/12/26 01:55:36;;;;;;;4.30;3.90;;;;;;;-143.84;56.10;45125.22;5031365;28;20445;-77
2021/12/26 01:58:06;;;;;;;4.50;4.03;;;;;;;-143.84;56.24;45125.22;5029515;28;20449;-77
2021/12/26 02:00:35;;;;;;;4.70;4.30;;;;;;;-143.84;56.21;45119.53;5032040;28;20458;-77
2021/12/26 02:03:03;;;;;;;4.57;4.17;;;;;;;-143.84;56.19;45146.19;5031460;28;20438;-77
2021/12/26 02:05:30;;;;;;;7.17;4.27;;;;;;;-143.84;56.26;45100.47;5032063;28;20449;-77
2021/12/26 02:07:57;;;;;;;4.63;4.23;;;;;;;-143.84;56.04;45104.28;5031762;28;20436;-77
2021/12/26 02:10:24;;;;;;;5.63;4.03;;;;;;;-143.84;56.42;45113.81;5031431;28;20486;-77
2021/12/26 02:12:51;;;;;;;5.53;4.47;;;;;;;-143.84;56.40;45119.53;5031134;28;20505;-77
2021/12/26 02:15:20;;;;;;;7.90;4.43;;;;;;;-143.84;56.52;45129.03;5031028;28;20790;-77
2021/12/26 02:17:47;;;;;;;3.70;3.40;;;;;;;-143.84;56.62;45129.03;5031407;28;20453;-77
2021/12/26 02:20:23;;;;;;;4.70;4.20;;;;;;;-143.84;56.70;45117.63;5030023;28;20469;-77
2021/12/26 02:22:56;;;;;;;3.90;3.60;;;;;;;-143.84;56.96;45113.81;5030956;28;20950;-77
2021/12/26 02:25:32;;;;;;;9.33;3.80;;;;;;;-143.84;57.07;45125.22;5031108;28;20445;-77
2021/12/26 02:28:00;;;;;;;3.93;3.47;;;;;;;-143.84;56.99;45132.84;5031189;28;20455;-77
2021/12/26 02:30:28;;;;;;;4.40;4.00;;;;;;;-143.84;57.04;45115.72;5030932;28;20825;-77
2021/12/26 02:32:59;;;;;;;5.10;4.60;;;;;;;-143.84;57.28;45138.56;5031255;28;20548;-77
2021/12/26 02:35:28;;;;;;;3.97;3.57;;;;;;;-143.84;57.19;45104.28;5031078;28;20489;-77
2021/12/26 02:37:55;;;;;;;4.10;3.80;;;;;;;-143.84;57.33;45092.88;5030731;28;20445;-77
2021/12/26 02:40:23;;;;;;;6.73;3.70;;;;;;;-143.84;57.31;45115.72;5031138;28;20450;-77
2021/12/26 02:42:50;;;;;;;6.83;4.57;;;;;;;-143.84;57.40;45142.38;5030557;28;20442;-77
2021/12/26 02:45:18;;;;;;;4.97;3.87;;;;;;;-143.84;57.55;45106.19;5030725;28;20966;-77
2021/12/26 02:47:48;;;;;;;4.33;4.03;;;;;;;-143.84;57.63;45113.81;5030954;28;20495;-77
2021/12/26 02:50:17;;;;;;;5.00;4.20;;;;;;;-143.84;57.80;45104.28;5030870;28;20489;-76
2021/12/26 02:52:47;;;;;;;3.80;3.50;;;;;;;-143.84;57.82;45148.09;5030452;28;20445;-76
2021/12/26 02:55:16;;;;;;;6.13;4.03;;;;;;;-143.84;57.82;45119.53;5030609;28;20494;-76
2021/12/26 02:57:47;;;;;;;5.93;4.23;;;;;;;-143.84;57.82;45121.44;5030602;28;20526;-76
2021/12/26 03:00:20;;;;;;;4.93;3.40;;;;;;;-143.84;58.07;45136.66;5030909;28;20452;-77
2021/12/26 03:02:50;;;;;;;3.63;3.10;;;;;;;-143.84;58.13;45110.00;5030174;28;20964;-76
2021/12/26 03:05:17;;;;;;;4.23;3.90;;;;;;;-143.84;57.96;45111.91;5030250;28;20443;-76
2021/12/26 03:07:48;;;;;;;5.00;3.70;;;;;;;-143.84;57.93;45092.88;5030277;28;20846;-76
2021/12/26 03:10:21;;;;;;;5.13;4.13;;;;;;;-143.84;57.66;45127.13;5030063;28;20449;-76
2021/12/26 03:12:49;;;;;;;5.50;4.10;;;;;;;-143.84;57.65;45108.09;5030144;28;20453;-76
2021/12/26 03:15:16;;;;;;;4.90;3.37;;;;;;;-143.84;57.34;45111.91;5029932;28;20484;-76
2021/12/26 03:17:44;;;;;;;5.00;4.13;;;;;;;-143.84;57.62;45127.13;5030365;28;20449;-76
2021/12/26 03:20:12;;;;;;;4.30;3.90;;;;;;;-143.84;57.72;45119.53;5029864;28;20548;-76
2021/12/26 03:22:40;;;;;;;4.60;4.17;;;;;;;-143.84;57.63;45119.53;5030130;28;20437;-76
2021/12/26 03:25:11;;;;;;;4.50;4.10;;;;;;;-143.84;57.28;45121.44;5029926;28;20442;-76
2021/12/26 03:27:38;;;;;;;3.60;3.40;;;;;;;-143.84;57.47;45104.28;5029841;28;20456;-76
2021/12/26 03:30:08;;;;;;;5.00;3.80;;;;;;;-143.84;57.66;45138.56;5029459;28;20441;-76
2021/12/26 03:32:35;;;;;;;6.13;3.90;;;;;;;-143.84;57.59;45087.16;5012159;28;20527;-76
2021/12/26 03:35:03;;;;;;;3.37;3.17;;;;;;;-143.84;57.47;45110.00;5029759;28;20435;-76
2021/12/26 03:37:30;;;;;;;4.53;4.13;;;;;;;-143.84;57.56;45102.38;5029655;28;20453;-77
2021/12/26 03:39:58;;;;;;;4.53;4.10;;;;;;;-143.84;57.65;45146.19;5029541;28;20422;-76
2021/12/26 03:42:26;;;;;;;4.10;3.70;;;;;;;-143.84;57.84;45108.09;5029638;28;20503;-76
2021/12/26 03:44:54;;;;;;;5.20;3.87;;;;;;;-143.84;57.69;45117.63;5029443;28;20452;-76
2021/12/26 03:47:22;;;;;;;4.43;4.03;;;;;;;-143.84;57.90;45119.53;5029522;28;20446;-76
2021/12/26 03:49:50;;;;;;;5.07;4.57;;;;;;;-143.84;58.05;45104.28;5029591;28;20503;-76
2021/12/26 03:52:17;;;;;;;4.93;4.03;;;;;;;-143.84;58.25;45117.63;5029232;28;20476;-76
2021/12/26 03:54:45;;;;;;;5.80;5.00;;;;;;;-143.84;58.04;45110.00;5029198;28;20446;-76
2021/12/26 03:57:12;;;;;;;4.10;3.80;;;;;;;-143.84;58.52;45106.19;5029883;28;20508;-76
2021/12/26 03:59:41;;;;;;;4.97;4.57;;;;;;;-143.84;58.42;45110.00;5029263;28;20449;-76
2021/12/26 04:02:08;;;;;;;6.43;5.23;;;;;;;-143.84;58.51;45106.19;5029662;28;20440;-76
2021/12/26 04:04:35;;;;;;;5.10;4.60;;;;;;;-143.84;58.85;45100.47;5029156;28;20454;-76
2021/12/26 04:07:02;;;;;;;8.43;5.17;;;;;;;-143.84;58.88;45117.63;5029552;28;20483;-76
2021/12/26 04:09:30;;;;;;;5.73;5.20;;;;;;;-143.84;58.82;45102.38;5029352;28;20450;-76
2021/12/26 04:11:57;;;;;;;12.50;5.10;;;;;;;-143.84;59.16;45129.03;5029244;28;20488;-76
2021/12/26 04:14:24;;;;;;;5.03;4.53;;;;;;;-143.84;59.30;45111.91;5029563;28;20490;-76
2021/12/26 04:16:54;;;;;;;5.07;4.57;;;;;;;-143.84;59.29;45132.84;5030134;28;20453;-77
2021/12/26 04:19:21;;;;;;;4.53;4.13;;;;;;;-143.84;59.26;45113.81;5033154;28;20492;-77
2021/12/26 04:21:49;;;;;;;3.93;3.63;;;;;;;-143.84;59.70;45117.63;5033148;28;20445;-77
2021/12/26 04:24:16;;;;;;;4.87;4.47;;;;;;;-143.84;59.84;45106.19;5032980;28;20448;-77
2021/12/26 04:26:44;;;;;;;8.53;4.43;;;;;;;-143.84;59.49;45098.56;5033276;28;20457;-77
2021/12/26 04:29:11;;;;;;;5.00;4.60;;;;;;;-143.84;59.84;45113.81;5033157;28;20437;-76
2021/12/26 04:31:39;;;;;;;4.53;4.13;;;;;;;-143.84;59.93;45098.56;5032651;28;20491;-77
2021/12/26 04:34:08;;;;;;;5.33;4.57;;;;;;;-143.84;60.04;45144.28;5032737;28;20444;-77
2021/12/26 04:36:35;;;;;;;4.30;3.90;;;;;;;-143.84;59.75;45085.25;5032706;28;21040;-77
2021/12/26 04:39:03;;;;;;;6.90;5.53;;;;;;;-143.84;59.81;45144.28;5032796;28;20739;-77
2021/12/26 04:41:30;;;;;;;5.13;4.50;;;;;;;-143.84;59.47;45129.03;5032700;28;20433;-77
2021/12/26 04:43:57;;;;;;;4.23;3.90;;;;;;;-143.84;59.67;45127.13;5032693;28;20449;-77
2021/12/26 04:46:25;;;;;;;6.37;4.67;;;;;;;-143.84;59.58;45119.53;5031556;28;20450;-77
2021/12/26 04:48:52;;;;;;;5.17;4.67;;;;;;;-143.84;59.57;45089.06;5031357;28;20474;-77
2021/12/26 04:51:21;;;;;;;4.80;4.40;;;;;;;-143.84;59.53;45127.13;5032494;28;20481;-77
2021/12/26 04:53:48;;;;;;;4.67;3.93;;;;;;;-143.84;59.33;45148.09;5032589;28;20496;-77
2021/12/26 04:56:15;;;;;;;5.60;4.23;;;;;;;-143.84;59.33;45119.53;5032140;28;20948;-77
2021/12/26 04:58:42;;;;;;;4.93;4.53;;;;;;;-143.84;59.29;45140.47;5033034;28;20441;-77
2021/12/26 05:01:10;;;;;;;4.33;4.00;;;;;;;-143.84;59.18;45150.00;5032471;28;20445;-77
2021/12/26 05:03:37;;;;;;;5.50;3.53;;;;;;;-143.84;59.51;45111.91;5032950;28;20488;-77
2021/12/26 05:06:04;;;;;;;4.47;4.00;;;;;;;-143.84;59.33;45108.09;5032990;28;20461;-77
2021/12/26 05:08:33;;;;;;;4.43;4.03;;;;;;;-143.84;59.58;45117.63;5032489;28;20877;-77
2021/12/26 05:11:00;;;;;;;4.40;4.00;;;;;;;-143.84;59.27;45134.75;5031584;28;20474;-76
2021/12/26 05:13:28;;;;;;;3.13;2.90;;;;;;;-143.84;59.56;45117.63;5032066;28;20426;-77
2021/12/26 05:15:55;;;;;;;3.70;3.40;;;;;;;-143.84;59.36;45098.56;5032330;28;20882;-77
2021/12/26 05:18:22;;;;;;;3.70;3.40;;;;;;;-143.84;59.51;45111.91;5032335;28;20437;-77
2021/12/26 05:20:50;;;;;;;3.33;3.07;;;;;;;-143.84;59.61;45130.94;5031940;28;20478;-77
2021/12/26 05:23:17;;;;;;;3.87;3.57;;;;;;;-143.84;59.16;45127.13;5032267;28;20484;-79
2021/12/26 05:25:46;;;;;;;4.53;4.13;;;;;;;-143.84;59.06;45134.75;5032105;28;20489;-77
2021/12/26 05:28:13;;;;;;;6.07;4.77;;;;;;;-143.84;58.98;45110.00;5031215;28;20508;-77
2021/12/26 05:30:40;;;;;;;7.43;3.63;;;;;;;-143.84;59.16;45130.94;5032108;28;20438;-77
2021/12/26 05:33:07;;;;;;;5.43;3.60;;;;;;;-143.84;58.96;45113.81;5032382;28;20454;-77
2021/12/26 05:35:34;;;;;;;4.10;3.70;;;;;;;-143.84;58.93;45102.38;5032431;28;20446;-77
2021/12/26 05:38:02;;;;;;;4.13;3.67;;;;;;;-143.84;58.95;45127.13;5032183;28;20442;-77
2021/12/26 05:40:29;;;;;;;4.10;3.80;;;;;;;-143.84;59.10;45123.34;5031902;28;20434;-77
2021/12/26 05:42:58;;;;;;;3.40;3.10;;;;;;;-143.84;58.83;45117.63;5032082;28;20438;-76
2021/12/26 05:45:25;;;;;;;5.53;3.20;;;;;;;-143.84;58.68;45115.72;5031419;28;20446;-76
2021/12/26 05:47:53;;;;;;;9.17;4.40;;;;;;;-143.84;58.80;45129.03;5031721;28;20492;-77
2021/12/26 05:50:22;;;;;;;3.73;3.30;;;;;;;-143.84;58.61;45102.38;5032059;28;20677;-77
2021/12/26 05:52:49;;;;;;;4.93;3.80;;;;;;;-143.84;58.59;45125.22;5032022;28;20481;-77
2021/12/26 05:55:17;;;;;;;4.77;3.50;;;;;;;-143.84;58.85;45111.91;5031857;28;20445;-77
2021/12/26 05:57:44;;;;;;;5.20;3.30;;;;;;;-143.84;58.63;45083.34;5031411;28;20850;-77
2021/12/26 06:00:17;;;;;;;3.97;3.67;;;;;;;-143.84;58.84;45115.72;5031217;28;20457;-77
2021/12/26 06:02:44;;;;;;;6.70;4.90;;;;;;;-143.84;59.58;45129.03;5030658;28;20861;-76
2021/12/26 06:05:12;;;;;;;4.23;3.90;;;;;;;-143.84;59.62;45117.63;5031270;28;20442;-77
2021/12/26 06:07:39;;;;;;;4.90;4.50;;;;;;;-143.84;59.65;45113.81;5030871;28;20511;-76
2021/12/26 06:10:07;;;;;;;6.77;4.40;;;;;;;-143.84;59.67;45096.66;5030749;28;20546;-76
2021/12/26 06:12:35;;;;;;;4.47;4.10;;;;;;;-143.84;59.29;45123.34;5030675;28;20502;-76
2021/12/26 06:15:04;;;;;;;6.40;4.03;;;;;;;-143.84;58.95;45104.28;5030643;28;20434;-76
2021/12/26 06:17:32;;;;;;;5.30;4.70;;;;;;;-143.84;58.91;45127.13;5030679;28;20430;-77
2021/12/26 06:20:00;;;;;;;5.60;4.47;;;;;;;-143.84;57.93;45123.34;5012419;28;20497;-76
2021/12/26 06:22:27;;;;;;;12.77;5.97;;;;;;;-143.84;57.90;45108.09;5030331;28;20450;-76
2021/12/26 06:24:54;;;;;;;5.93;5.30;;;;;;;-143.84;57.53;45125.22;5030533;28;20688;-76
2021/12/26 06:27:21;;;;;;;9.20;7.30;;;;;;;-143.84;57.51;45121.44;5030219;28;20450;-75
2021/12/26 06:29:48;;;;;;;15.33;8.17;;;;;;;-143.84;58.07;45113.81;5030424;28;20532;-76
2021/12/26 06:32:16;;;;;;;5.77;5.10;;;;;;;-143.84;58.61;45130.94;5030392;28;20512;-76
2021/12/26 06:34:44;;;;;;;7.07;5.50;;;;;;;-143.84;58.30;45132.84;5029903;28;20439;-76
2021/12/26 06:37:11;;;;;;;6.50;5.90;;;;;;;-143.84;58.44;45094.78;5030335;28;20446;-76
2021/12/26 06:39:39;;;;;;;9.80;6.90;;;;;;;-143.84;58.29;45117.63;5030039;28;20451;-76
2021/12/26 06:42:06;;;;;;;9.00;6.87;;;;;;;-143.84;58.32;45094.78;5030171;28;20443;-76
2021/12/26 06:44:33;;;;;;;7.43;6.50;;;;;;;-143.84;58.27;45110.00;5012702;28;20443;-77
2021/12/26 06:47:01;;;;;;;9.80;7.80;;;;;;;-143.84;58.62;45110.00;5029984;28;21012;-77
2021/12/26 06:49:28;;;;;;;9.33;6.10;;;;;;;-143.84;58.78;45110.00;5029731;28;20442;-76
2021/12/26 06:51:57;;;;;;;11.27;6.77;;;;;;;-143.84;58.17;45108.09;5029677;28;20632;-76
2021/12/26 06:54:25;;;;;;;11.17;7.53;;;;;;;-143.84;58.13;45108.09;5030140;28;20808;-76
2021/12/26 06:56:52;;;;;;;20.63;11.83;;;;;;;-143.84;56.89;45098.56;5029777;28;20449;-76
2021/12/26 06:59:19;;;;;;;13.30;7.80;;;;;;;-143.84;56.62;45096.66;5029970;28;20443;-75
2021/12/26 07:01:47;;;;;;;10.57;8.83;;;;;;;-143.84;57.24;45115.72;5029802;28;20451;-75
2021/12/26 07:04:14;;;;;;;14.53;10.93;;;;;;;-143.84;57.54;45089.06;5029655;28;20956;-75
2021/12/26 07:06:41;;;;;;;20.77;11.97;;;;;;;-143.84;57.34;45108.09;5029784;28;20440;-75
2021/12/26 07:09:10;;;;;;;17.60;11.37;;;;;;;-143.84;57.70;45098.56;5029778;28;20453;-75
2021/12/26 07:11:37;;;;;;;14.70;8.43;;;;;;;-143.84;57.36;45115.72;5029888;28;20855;-75
2021/12/26 07:14:04;;;;;;;12.80;9.27;;;;;;;-143.84;57.12;45085.25;5029805;28;20459;-75
2021/12/26 07:16:32;;;;;;;12.83;10.33;;;;;;;-143.84;56.62;45106.19;5029757;28;20442;-75
2021/12/26 07:18:59;;;;;;;14.83;10.50;;;;;;;-143.84;56.62;45094.78;5029514;28;20563;-75
2021/12/26 07:21:27;;;;;;;16.80;11.13;;;;;;;-143.84;57.12;45121.44;5029691;28;20975;-75
2021/12/26 07:23:54;;;;;;;12.40;10.20;;;;;;;-143.84;56.94;45096.66;5029726;28;20507;-75
2021/12/26 07:26:24;;;;;;;11.17;8.93;;;;;;;-143.84;57.52;45102.38;5029767;28;20485;-75
2021/12/26 07:28:51;;;;;;;9.70;7.80;;;;;;;-143.84;57.91;45106.19;5029712;28;20525;-75
2021/12/26 07:31:19;;;;;;;12.67;7.23;;;;;;;-143.84;58.12;45090.97;5029313;28;20450;-76
2021/12/26 07:33:46;;;;;;;12.53;8.13;;;;;;;-143.84;57.88;45094.78;5029766;28;20438;-75
2021/12/26 07:36:13;;;;;;;8.30;6.50;;;;;;;-143.84;57.40;45100.47;5029657;28;20477;-75
2021/12/26 07:38:40;;;;;;;8.70;6.30;;;;;;;-143.84;57.37;45089.06;5029240;28;20446;-75
2021/12/26 07:41:08;;;;;;;8.43;6.70;;;;;;;-143.84;57.83;45113.81;5029545;28;20445;-75
2021/12/26 07:43:37;;;;;;;13.93;6.67;;;;;;;-143.84;58.08;45121.44;5029542;28;20512;-76
2021/12/26 07:46:04;;;;;;;9.80;6.87;;;;;;;-143.84;56.79;45115.72;5029458;28;20847;-76
2021/12/26 07:48:31;;;;;;;8.43;6.77;;;;;;;-143.84;55.93;45136.66;5029280;28;20435;-75
2021/12/26 07:50:58;;;;;;;9.83;7.23;;;;;;;-143.84;56.14;45094.78;5029459;28;20510;-75
2021/12/26 07:53:26;;;;;;;10.57;7.20;;;;;;;-143.84;54.64;45079.53;5032982;28;20487;-75
2021/12/26 07:55:53;;;;;;;9.17;7.07;;;;;;;-143.84;55.21;45087.16;5033268;28;20439;-75
2021/12/26 07:58:20;;;;;;;10.00;7.10;;;;;;;-143.84;54.89;45090.97;5033282;28;20424;-75
2021/12/26 08:00:49;;;;;;;10.67;8.07;;;;;;;-143.84;55.07;45123.34;5033402;28;20445;-75
2021/12/26 08:03:16;;;;;;;8.53;7.10;;;;;;;-143.84;54.84;45089.06;5032990;28;20434;-75
2021/12/26 08:05:43;;;;;;;9.20;7.87;;;;;;;-143.84;54.75;45106.19;5032829;28;20446;-75
2021/12/26 08:08:10;;;;;;;9.30;7.10;;;;;;;-143.84;54.72;45106.19;5033283;28;20507;-75
2021/12/26 08:10:37;;;;;;;15.37;9.00;;;;;;;-143.84;54.80;45081.44;5033384;28;20442;-75
2021/12/26 08:13:05;;;;;;;11.77;8.60;;;;;;;-143.84;55.50;45094.78;5033192;28;20478;-76
2021/12/26 08:15:32;;;;;;;10.43;8.60;;;;;;;-143.84;55.68;45117.63;5033174;28;20446;-75
2021/12/26 08:18:01;;;;;;;12.90;8.27;;;;;;;-143.84;56.94;45121.44;5033229;28;20450;-75
2021/12/26 08:20:28;;;;;;;12.13;8.40;;;;;;;-143.84;57.54;45113.81;5032727;28;21016;-76
2021/12/26 08:22:57;;;;;;;13.87;8.23;;;;;;;-143.84;57.83;45090.97;5033125;28;20441;-76
2021/12/26 08:25:25;;;;;;;15.07;8.30;;;;;;;-143.84;58.13;45092.88;5032940;28;20450;-76
2021/12/26 08:27:52;;;;;;;8.60;7.30;;;;;;;-143.84;57.88;45100.47;5032874;28;20465;-75
2021/12/26 08:30:20;;;;;;;11.03;7.73;;;;;;;-143.84;58.27;45111.91;5032857;28;20418;-76
2021/12/26 08:32:51;;;;;;;14.10;9.50;;;;;;;-143.84;58.96;45129.03;5032877;28;20481;-75
2021/12/26 08:35:20;;;;;;;13.47;8.50;;;;;;;-143.84;60.04;45111.91;5032914;28;20501;-76
2021/12/26 08:37:48;;;;;;;11.47;9.47;;;;;;;-143.84;60.49;45123.34;5032726;28;20830;-75
2021/12/26 08:40:16;;;;;;;10.40;8.60;;;;;;;-143.84;60.87;45144.28;5032928;28;20496;-75
2021/12/26 08:42:43;;;;;;;11.50;8.90;;;;;;;-143.84;60.63;45113.81;5033003;28;20435;-76
2021/12/26 08:45:12;;;;;;;12.73;8.40;;;;;;;-143.84;61.08;45111.91;5032645;28;20492;-75
2021/12/26 08:47:40;;;;;;;13.00;8.53;;;;;;;-143.84;61.53;45098.56;5032310;28;20984;-75
2021/12/26 08:50:08;;;;;;;12.17;9.13;;;;;;;-143.84;62.25;45138.56;5032344;28;20446;-75
2021/12/26 08:52:37;;;;;;;12.47;8.13;;;;;;;-143.84;62.29;45113.81;5032515;28;20901;-75
2021/12/26 08:55:05;;;;;;;11.57;8.20;;;;;;;-143.84;62.77;45104.28;5030938;28;20508;-75
2021/12/26 08:57:33;;;;;;;12.37;8.80;;;;;;;-143.84;62.50;45115.72;5031301;28;20985;-75
2021/12/26 09:00:00;;;;;;;10.73;8.80;;;;;;;-143.84;62.80;45119.53;5032399;28;20462;-75
2021/12/26 09:02:27;;;;;;;10.60;7.17;;;;;;;-143.84;62.12;45098.56;5013571;28;20883;-75
2021/12/26 09:04:55;;;;;;;12.20;9.70;;;;;;;-143.84;62.38;45096.66;5014307;28;20439;-75
2021/12/26 09:07:22;;;;;;;10.90;7.77;;;;;;;-143.84;62.55;45102.38;5012639;28;20448;-75
2021/12/26 09:09:50;;;;;;;11.00;8.53;;;;;;;-143.84;62.10;45132.84;5012639;28;20440;-75
2021/12/26 09:12:18;;;;;;;15.23;10.23;;;;;;;-143.84;61.55;45094.78;5012562;28;20484;-75
2021/12/26 09:14:46;;;;;;;14.60;8.63;;;;;;;-143.84;62.32;45106.19;5020189;28;20437;-75
2021/12/26 09:17:13;;;;;;;12.30;8.80;;;;;;;-143.84;62.66;45123.34;5020262;28;20444;-75
2021/12/26 09:19:40;;;;;;;16.43;9.93;;;;;;;-143.84;61.85;45111.91;5019658;28;20864;-75
2021/12/26 09:22:10;;;;;;;16.73;10.60;;;;;;;-143.84;60.63;45111.91;5022683;28;20897;-75
2021/12/26 09:24:39;;;;;;;15.40;9.40;;;;;;;-143.84;61.09;45113.81;5023819;28;21318;-75
2021/12/26 09:27:08;;;;;;;13.90;10.13;;;;;;;-143.84;60.64;45130.94;5023391;28;20464;-75
2021/12/26 09:29:36;;;;;;;18.77;12.63;;;;;;;-143.84;59.73;45098.56;5029376;28;20447;-75
2021/12/26 09:32:04;;;;;;;13.57;10.03;;;;;;;-143.84;60.19;45117.63;5031557;28;20485;-75
2021/12/26 09:34:33;;;;;;;14.87;10.20;;;;;;;-143.84;60.55;45125.22;5014464;28;20449;-75
2021/12/26 09:37:01;;;;;;;21.53;12.30;;;;;;;-143.84;60.42;45115.72;5031795;28;20493;-75
2021/12/26 09:39:28;;;;;;;15.20;11.83;;;;;;;-143.84;59.45;45071.91;5018481;28;20503;-75
2021/12/26 09:41:56;;;;;;;13.07;10.50;;;;;;;-143.84;58.77;45132.84;5012234;28;20443;-75
2021/12/26 09:44:25;;;;;;;17.77;12.27;;;;;;;-143.84;59.89;45150.00;5021103;28;20449;-75
2021/12/26 09:46:54;;;;;;;18.10;12.13;;;;;;;-143.84;59.70;45098.56;5012578;28;20445;-74
2021/12/26 09:49:21;;;;;;;13.20;11.07;;;;;;;-143.84;59.72;45087.16;5011662;28;20442;-76
2021/12/26 09:51:52;;;;;;;17.07;12.33;;;;;;;-143.84;60.16;45104.28;5019417;28;20519;-76
2021/12/26 09:54:19;;;;;;;15.20;10.63;;;;;;;-143.84;59.38;45106.19;5032203;28;20476;-77
2021/12/26 09:56:47;;;;;;;19.97;11.67;;;;;;;-143.84;57.97;45089.06;5033061;28;20506;-77
2021/12/26 09:59:17;;;;;;;12.93;10.40;;;;;;;-143.84;58.03;45129.03;5038454;28;20462;-75
2021/12/26 10:01:48;;;;;;;22.50;10.63;;;;;;;-143.84;58.54;45121.44;5020228;28;20443;-75
2021/12/26 10:04:21;;;;;;;15.43;10.20;;;;;;;-143.84;58.54;45106.19;5023587;28;20458;-77
2021/12/26 10:06:49;;;;;;;19.60;9.77;;;;;;;-143.84;57.54;45113.81;5014084;28;20506;-76
2021/12/26 10:09:18;;;;;;;16.97;9.50;;;;;;;-143.84;57.43;45111.91;5012242;28;20444;-76
2021/12/26 10:11:48;;;;;;;21.80;10.23;;;;;;;-143.84;57.56;45092.88;5013449;28;20443;-75
2021/12/26 10:14:17;;;;;;;14.40;10.23;;;;;;;-143.84;56.86;45090.97;5024109;28;20501;-77
2021/12/26 10:16:49;;;;;;;13.50;9.50;;;;;;;-143.84;56.67;45119.53;5019443;28;20453;-76
2021/12/26 10:19:17;;;;;;;10.63;9.50;;;;;;;-143.84;56.14;45104.28;5020083;28;20493;-76
2021/12/26 10:21:47;;;;;;;14.23;10.60;;;;;;;-143.84;56.35;45087.16;5025256;28;20450;-76
2021/12/26 10:24:20;;;;;;;15.83;10.80;;;;;;;-143.84;56.42;45111.91;5016662;28;20944;-76
2021/12/26 10:26:50;;;;;;;12.07;8.70;;;;;;;-143.84;56.96;45087.16;5011400;28;20445;-75
2021/12/26 10:29:28;;;;;;;14.83;9.67;;;;;;;-143.84;56.96;45090.97;5011345;28;20445;-75
2021/12/26 10:32:05;;;;;;;13.03;10.20;;;;;;;-143.84;57.17;45106.19;5018261;28;20447;-74
2021/12/26 10:34:36;;;;;;;12.30;9.53;;;;;;;-143.84;57.30;45098.56;5030983;28;20481;-74
2021/12/26 10:37:07;;;;;;;19.67;11.80;;;;;;;-143.84;57.88;45075.72;5016090;28;20975;-74
2021/12/26 10:39:37;;;;;;;18.50;9.90;;;;;;;-143.84;58.22;45094.78;5009534;28;20510;-75
2021/12/26 10:42:07;;;;;;;13.87;9.83;;;;;;;-143.84;58.48;45073.81;5025259;28;20442;-75
2021/12/26 10:44:38;;;;;;;15.60;9.93;;;;;;;-143.84;58.32;45136.66;5029943;28;20859;-75
2021/12/26 10:47:09;;;;;;;13.27;11.20;;;;;;;-143.84;58.35;45089.06;5029831;28;20497;-75
2021/12/26 10:49:39;;;;;;;18.67;11.70;;;;;;;-143.84;58.18;45083.34;5013696;28;20506;-75
2021/12/26 10:52:16;;;;;;;16.33;12.30;;;;;;;-143.84;58.08;45106.19;5018123;28;21210;-75
2021/12/26 10:54:44;;;;;;;19.40;12.30;;;;;;;-143.84;58.19;45106.19;5010350;28;20497;-75
2021/12/26 10:57:19;;;;;;;15.27;11.30;;;;;;;-143.84;56.94;45098.56;4992793;28;20477;-75
2021/12/26 10:59:49;;;;;;;17.53;11.10;;;;;;;-143.84;57.77;45094.78;5010302;28;20994;-75
2021/12/26 11:02:27;;;;;;;15.23;10.93;;;;;;;-143.84;57.56;45083.34;5014099;28;20799;-75
2021/12/26 11:04:58;;;;;;;19.27;13.00;;;;;;;-143.84;58.42;45068.13;5029779;28;20457;-75
2021/12/26 11:07:25;;;;;;;15.67;11.10;;;;;;;-143.84;57.81;45066.22;5029828;28;20452;-75
2021/12/26 11:10:05;;;;;;;12.73;10.60;;;;;;;-143.84;56.99;45129.03;5029545;28;20457;-75
2021/12/26 11:12:41;;;;;;;17.40;11.53;;;;;;;-143.84;56.68;45094.78;5029567;28;20435;-75
2021/12/26 11:15:10;;;;;;;16.33;11.47;;;;;;;-143.84;57.59;45098.56;5029917;28;20457;-75
2021/12/26 11:17:44;;;;;;;24.23;13.10;;;;;;;-143.84;57.99;45070.00;5029727;28;20439;-75